Check out our new PWSWeather beta!
PWSweather.com
Personal Weather Stations
Station Observations
PICKERING
North Yorkshire, PickeringGB

North YorkshirePickeringGB

Lat: 54.2494, Lon: -0.7725

Elevation: 192

Station Type: Oregon Scientific WMR100

High Low Average
Temperature 79.7°F26.5°C 58.5°F14.7°C 66.5°F19.2°C
Dew Point 60.8°F16.0°C 48.2°F9.0°C 54.5°F12.5°C
Winds 11.0 mph 17.7 kmh Calm Calm 4.0 mph S6.4 kmh S
Wind Gusts 16.8 mph27.0 kmh -- 6.0 mph9.7 kmh
Humidity 85% 44% 67%
Pressure 29.71 in1006.1 mb 29.65 in1004.1 mb -
Precipitation 0.06 in1.5 mm - -
Hour Temp Dew Point Humidity Winds Wind Gusts Pressure Precip Precip Rate Daily Precip Total
12:00 AM 61.7°F16.5°C 55.4°F13.0°C 81% 0.7 mph SE1.1 kmh SE 1.3 mph2.1 kmh 29.71 in1006.1 mb 0.00 in0.0 mm 0.00 in0.0 mm 0.00 in0.0 mm
12:05 AM 61.7°F16.5°C 55.4°F13.0°C 80% 0.6 mph SE1.0 kmh SE 1.3 mph2.1 kmh 29.71 in1006.1 mb 0.00 in0.0 mm 0.00 in0.0 mm 0.00 in0.0 mm
12:10 AM 61.7°F16.5°C 55.4°F13.0°C 81% 0.2 mph SE0.3 kmh SE 1.1 mph1.8 kmh 29.71 in1006.1 mb 0.00 in0.0 mm 0.00 in0.0 mm 0.00 in0.0 mm
12:15 AM 61.7°F16.5°C 55.4°F13.0°C 81% Calm Calm -- 29.71 in1006.1 mb 0.00 in0.0 mm 0.00 in0.0 mm 0.00 in0.0 mm
12:20 AM 61.7°F16.5°C 55.4°F13.0°C 81% 0.2 mph SE0.3 kmh SE 1.3 mph2.1 kmh 29.71 in1006.1 mb 0.00 in0.0 mm 0.00 in0.0 mm 0.00 in0.0 mm
12:25 AM 61.7°F16.5°C 55.4°F13.0°C 81% 0.4 mph SE0.6 kmh SE 1.3 mph2.1 kmh 29.71 in1006.1 mb 0.00 in0.0 mm 0.00 in0.0 mm 0.00 in0.0 mm
12:30 AM 61.7°F16.5°C 55.4°F13.0°C 81% 0.2 mph ESE0.3 kmh ESE 1.1 mph1.8 kmh 29.71 in1006.1 mb 0.00 in0.0 mm 0.00 in0.0 mm 0.00 in0.0 mm
12:35 AM 61.7°F16.5°C 55.4°F13.0°C 81% Calm Calm -- 29.71 in1006.1 mb 0.00 in0.0 mm 0.00 in0.0 mm 0.00 in0.0 mm
12:40 AM 61.7°F16.5°C 57.2°F14.0°C 82% Calm Calm -- 29.71 in1006.1 mb 0.00 in0.0 mm 0.00 in0.0 mm 0.00 in0.0 mm
12:45 AM 61.7°F16.5°C 55.4°F13.0°C 81% Calm Calm -- 29.71 in1006.1 mb 0.00 in0.0 mm 0.00 in0.0 mm 0.00 in0.0 mm
12:50 AM 61.7°F16.5°C 57.2°F14.0°C 82% 0.1 mph NE0.2 kmh NE 1.6 mph2.6 kmh 29.71 in1006.1 mb 0.00 in0.0 mm 0.00 in0.0 mm 0.00 in0.0 mm
12:55 AM 61.5°F16.4°C 55.4°F13.0°C 82% 0.7 mph NE1.1 kmh NE 1.6 mph2.6 kmh 29.71 in1006.1 mb 0.00 in0.0 mm 0.00 in0.0 mm 0.00 in0.0 mm
01:00 AM 61.7°F16.5°C 57.2°F14.0°C 82% 0.5 mph NE0.8 kmh NE 1.6 mph2.6 kmh 29.71 in1006.1 mb 0.00 in0.0 mm 0.00 in0.0 mm 0.00 in0.0 mm
01:05 AM 61.7°F16.5°C 57.2°F14.0°C 82% 1.1 mph NE1.8 kmh NE 3.4 mph5.5 kmh 29.71 in1006.1 mb 0.00 in0.0 mm 0.00 in0.0 mm 0.00 in0.0 mm
01:10 AM 61.7°F16.5°C 57.2°F14.0°C 83% 1.1 mph NE1.8 kmh NE 3.4 mph5.5 kmh 29.71 in1006.1 mb 0.00 in0.0 mm 0.00 in0.0 mm 0.00 in0.0 mm
01:15 AM 61.9°F16.6°C 57.2°F14.0°C 83% Calm Calm -- 29.71 in1006.1 mb 0.00 in0.0 mm 0.00 in0.0 mm 0.00 in0.0 mm
01:20 AM 61.9°F16.6°C 57.2°F14.0°C 82% Calm Calm -- 29.71 in1006.1 mb 0.00 in0.0 mm 0.00 in0.0 mm 0.00 in0.0 mm
01:25 AM 61.9°F16.6°C 57.2°F14.0°C 83% Calm Calm -- 29.71 in1006.1 mb 0.00 in0.0 mm 0.00 in0.0 mm 0.00 in0.0 mm
01:30 AM 61.9°F16.6°C 57.2°F14.0°C 83% 0.1 mph ESE0.2 kmh ESE 1.1 mph1.8 kmh 29.71 in1006.1 mb 0.00 in0.0 mm 0.00 in0.0 mm 0.00 in0.0 mm
01:35 AM 61.9°F16.6°C 57.2°F14.0°C 83% 0.8 mph SE1.3 kmh SE 2.0 mph3.2 kmh 29.71 in1006.1 mb 0.00 in0.0 mm 0.00 in0.0 mm 0.00 in0.0 mm
01:40 AM 61.9°F16.6°C 57.2°F14.0°C 82% 0.8 mph SE1.3 kmh SE 2.0 mph3.2 kmh 29.71 in1006.1 mb 0.00 in0.0 mm 0.00 in0.0 mm 0.00 in0.0 mm
01:45 AM 61.9°F16.6°C 57.2°F14.0°C 83% 0.1 mph SSE0.2 kmh SSE 1.1 mph1.8 kmh 29.71 in1006.1 mb 0.00 in0.0 mm 0.00 in0.0 mm 0.00 in0.0 mm
01:50 AM 61.9°F16.6°C 57.2°F14.0°C 83% 0.2 mph NE0.3 kmh NE 1.6 mph2.6 kmh 29.71 in1006.1 mb 0.00 in0.0 mm 0.00 in0.0 mm 0.00 in0.0 mm
01:55 AM 61.9°F16.6°C 57.2°F14.0°C 83% 0.5 mph NE0.8 kmh NE 1.6 mph2.6 kmh 29.71 in1006.1 mb 0.00 in0.0 mm 0.00 in0.0 mm 0.00 in0.0 mm
02:00 AM 61.9°F16.6°C 57.2°F14.0°C 83% 0.8 mph NE1.3 kmh NE 1.6 mph2.6 kmh 29.71 in1006.1 mb 0.00 in0.0 mm 0.00 in0.0 mm 0.00 in0.0 mm
02:05 AM 61.9°F16.6°C 57.2°F14.0°C 83% 1.2 mph ENE1.9 kmh ENE 2.5 mph4.0 kmh 29.71 in1006.1 mb 0.00 in0.0 mm 0.00 in0.0 mm 0.00 in0.0 mm
02:10 AM 61.9°F16.6°C 57.2°F14.0°C 83% 1.2 mph ENE1.9 kmh ENE 2.5 mph4.0 kmh 29.71 in1006.1 mb 0.00 in0.0 mm 0.00 in0.0 mm 0.00 in0.0 mm
02:15 AM 61.9°F16.6°C 57.2°F14.0°C 83% 0.9 mph E1.4 kmh E 2.5 mph4.0 kmh 29.71 in1006.1 mb 0.00 in0.0 mm 0.00 in0.0 mm 0.00 in0.0 mm
02:20 AM 61.7°F16.5°C 57.2°F14.0°C 83% 0.4 mph E0.6 kmh E 2.0 mph3.2 kmh 29.71 in1006.1 mb 0.00 in0.0 mm 0.00 in0.0 mm 0.00 in0.0 mm
02:25 AM 61.9°F16.6°C 57.2°F14.0°C 83% Calm Calm -- 29.71 in1006.1 mb 0.00 in0.0 mm 0.00 in0.0 mm 0.00 in0.0 mm
02:30 AM 61.9°F16.6°C 57.2°F14.0°C 83% 0.3 mph SSE0.5 kmh SSE 1.3 mph2.1 kmh 29.71 in1006.1 mb 0.00 in0.0 mm 0.00 in0.0 mm 0.00 in0.0 mm
02:35 AM 61.7°F16.5°C 57.2°F14.0°C 83% 1.0 mph SSE1.6 kmh SSE 2.2 mph3.5 kmh 29.71 in1006.1 mb 0.00 in0.0 mm 0.00 in0.0 mm 0.00 in0.0 mm
02:40 AM 61.7°F16.5°C 57.2°F14.0°C 83% 0.9 mph SSE1.4 kmh SSE 2.2 mph3.5 kmh 29.71 in1006.1 mb 0.00 in0.0 mm 0.00 in0.0 mm 0.00 in0.0 mm
02:45 AM 61.7°F16.5°C 57.2°F14.0°C 83% 0.6 mph SE1.0 kmh SE 1.6 mph2.6 kmh 29.71 in1006.1 mb 0.00 in0.0 mm 0.00 in0.0 mm 0.00 in0.0 mm
02:50 AM 61.7°F16.5°C 57.2°F14.0°C 83% 0.4 mph E0.6 kmh E 1.3 mph2.1 kmh 29.71 in1006.1 mb 0.00 in0.0 mm 0.00 in0.0 mm 0.00 in0.0 mm
02:55 AM 61.5°F16.4°C 55.4°F13.0°C 83% 0.1 mph E0.2 kmh E 0.9 mph1.4 kmh 29.71 in1006.1 mb 0.00 in0.0 mm 0.00 in0.0 mm 0.00 in0.0 mm
03:00 AM 61.5°F16.4°C 55.4°F13.0°C 83% 0.3 mph E0.5 kmh E 1.3 mph2.1 kmh 29.71 in1006.1 mb 0.00 in0.0 mm 0.00 in0.0 mm 0.00 in0.0 mm
03:05 AM 61.5°F16.4°C 55.4°F13.0°C 83% 0.9 mph E1.4 kmh E 1.3 mph2.1 kmh 29.71 in1006.1 mb 0.00 in0.0 mm 0.00 in0.0 mm 0.00 in0.0 mm
03:10 AM 61.3°F16.3°C 55.4°F13.0°C 83% 1.1 mph ESE1.8 kmh ESE 2.0 mph3.2 kmh 29.71 in1006.1 mb 0.00 in0.0 mm 0.00 in0.0 mm 0.00 in0.0 mm
03:15 AM 61.3°F16.3°C 57.2°F14.0°C 84% 0.6 mph ESE1.0 kmh ESE 2.0 mph3.2 kmh 29.71 in1006.1 mb 0.00 in0.0 mm 0.00 in0.0 mm 0.00 in0.0 mm
03:20 AM 61.2°F16.2°C 57.2°F14.0°C 84% 0.7 mph ESE1.1 kmh ESE 2.2 mph3.5 kmh 29.68 in1005.1 mb 0.00 in0.0 mm 0.00 in0.0 mm 0.00 in0.0 mm
03:25 AM 61.2°F16.2°C 57.2°F14.0°C 84% 0.8 mph ESE1.3 kmh ESE 2.2 mph3.5 kmh 29.68 in1005.1 mb 0.00 in0.0 mm 0.00 in0.0 mm 0.00 in0.0 mm
03:30 AM 61.2°F16.2°C 57.2°F14.0°C 84% 0.7 mph SE1.1 kmh SE 2.0 mph3.2 kmh 29.68 in1005.1 mb 0.00 in0.0 mm 0.00 in0.0 mm 0.00 in0.0 mm
03:35 AM 61.0°F16.1°C 55.4°F13.0°C 84% 1.2 mph SE1.9 kmh SE 2.9 mph4.7 kmh 29.68 in1005.1 mb 0.00 in0.0 mm 0.00 in0.0 mm 0.00 in0.0 mm
03:40 AM 61.0°F16.1°C 55.4°F13.0°C 84% 1.4 mph SE2.3 kmh SE 2.9 mph4.7 kmh 29.68 in1005.1 mb 0.00 in0.0 mm 0.00 in0.0 mm 0.00 in0.0 mm
03:45 AM 61.0°F16.1°C 55.4°F13.0°C 84% 1.1 mph SE1.8 kmh SE 2.2 mph3.5 kmh 29.68 in1005.1 mb 0.00 in0.0 mm 0.00 in0.0 mm 0.00 in0.0 mm
03:50 AM 60.8°F16.0°C 55.4°F13.0°C 84% 0.5 mph SE0.8 kmh SE 2.0 mph3.2 kmh 29.68 in1005.1 mb 0.00 in0.0 mm 0.00 in0.0 mm 0.00 in0.0 mm
03:55 AM 60.6°F15.9°C 55.4°F13.0°C 84% Calm Calm -- 29.68 in1005.1 mb 0.00 in0.0 mm 0.00 in0.0 mm 0.00 in0.0 mm
04:00 AM 60.3°F15.7°C 55.4°F13.0°C 83% 0.1 mph SE0.2 kmh SE 1.1 mph1.8 kmh 29.68 in1005.1 mb 0.00 in0.0 mm 0.00 in0.0 mm 0.00 in0.0 mm
04:05 AM 60.1°F15.6°C 55.4°F13.0°C 83% 0.1 mph SE0.2 kmh SE 1.1 mph1.8 kmh 29.68 in1005.1 mb 0.00 in0.0 mm 0.00 in0.0 mm 0.00 in0.0 mm
04:10 AM 60.1°F15.6°C 55.4°F13.0°C 83% 0.1 mph ENE0.2 kmh ENE 1.1 mph1.8 kmh 29.68 in1005.1 mb 0.00 in0.0 mm 0.00 in0.0 mm 0.00 in0.0 mm
04:15 AM 60.1°F15.6°C 55.4°F13.0°C 83% 0.2 mph ENE0.3 kmh ENE 1.1 mph1.8 kmh 29.68 in1005.1 mb 0.00 in0.0 mm 0.00 in0.0 mm 0.00 in0.0 mm
04:20 AM 60.3°F15.7°C 55.4°F13.0°C 84% 0.2 mph ESE0.3 kmh ESE 1.3 mph2.1 kmh 29.68 in1005.1 mb 0.00 in0.0 mm 0.00 in0.0 mm 0.00 in0.0 mm
04:25 AM 60.4°F15.8°C 55.4°F13.0°C 84% 0.5 mph SE0.8 kmh SE 2.7 mph4.3 kmh 29.68 in1005.1 mb 0.00 in0.0 mm 0.00 in0.0 mm 0.00 in0.0 mm
04:30 AM 60.4°F15.8°C 55.4°F13.0°C 84% 0.7 mph E1.1 kmh E 2.7 mph4.3 kmh 29.68 in1005.1 mb 0.00 in0.0 mm 0.00 in0.0 mm 0.00 in0.0 mm
04:35 AM 60.4°F15.8°C 55.4°F13.0°C 84% 0.6 mph ENE1.0 kmh ENE 1.6 mph2.6 kmh 29.68 in1005.1 mb 0.00 in0.0 mm 0.00 in0.0 mm 0.00 in0.0 mm
04:40 AM 60.4°F15.8°C 55.4°F13.0°C 84% 0.6 mph NE1.0 kmh NE 1.6 mph2.6 kmh 29.68 in1005.1 mb 0.00 in0.0 mm 0.00 in0.0 mm 0.00 in0.0 mm
04:45 AM 60.4°F15.8°C 55.4°F13.0°C 84% 0.4 mph NNE0.6 kmh NNE 1.6 mph2.6 kmh 29.68 in1005.1 mb 0.00 in0.0 mm 0.00 in0.0 mm 0.00 in0.0 mm
04:50 AM 60.4°F15.8°C 55.4°F13.0°C 84% 0.1 mph NNE0.2 kmh NNE 1.1 mph1.8 kmh 29.68 in1005.1 mb 0.00 in0.0 mm 0.00 in0.0 mm 0.00 in0.0 mm
04:55 AM 60.4°F15.8°C 55.4°F13.0°C 85% Calm Calm -- 29.68 in1005.1 mb 0.00 in0.0 mm 0.00 in0.0 mm 0.00 in0.0 mm
05:00 AM 60.4°F15.8°C 55.4°F13.0°C 84% Calm Calm -- 29.68 in1005.1 mb 0.00 in0.0 mm 0.00 in0.0 mm 0.00 in0.0 mm
05:05 AM 60.4°F15.8°C 55.4°F13.0°C 84% Calm Calm -- 29.68 in1005.1 mb 0.00 in0.0 mm 0.00 in0.0 mm 0.00 in0.0 mm
05:10 AM 60.3°F15.7°C 55.4°F13.0°C 84% 0.5 mph ESE0.8 kmh ESE 1.6 mph2.6 kmh 29.68 in1005.1 mb 0.00 in0.0 mm 0.00 in0.0 mm 0.00 in0.0 mm
05:15 AM 60.3°F15.7°C 55.4°F13.0°C 84% 0.8 mph SE1.3 kmh SE 1.6 mph2.6 kmh 29.68 in1005.1 mb 0.00 in0.0 mm 0.00 in0.0 mm 0.00 in0.0 mm
05:20 AM 60.4°F15.8°C 55.4°F13.0°C 84% 1.1 mph SSE1.8 kmh SSE 2.2 mph3.5 kmh 29.68 in1005.1 mb 0.00 in0.0 mm 0.00 in0.0 mm 0.00 in0.0 mm
05:25 AM 60.8°F16.0°C 55.4°F13.0°C 84% 1.8 mph SSE2.9 kmh SSE 3.4 mph5.5 kmh 29.68 in1005.1 mb 0.00 in0.0 mm 0.00 in0.0 mm 0.00 in0.0 mm
05:30 AM 60.8°F16.0°C 55.4°F13.0°C 84% 1.9 mph SSE3.1 kmh SSE 3.4 mph5.5 kmh 29.68 in1005.1 mb 0.00 in0.0 mm 0.00 in0.0 mm 0.00 in0.0 mm
05:35 AM 60.8°F16.0°C 55.4°F13.0°C 84% 1.7 mph SE2.7 kmh SE 3.1 mph5.0 kmh 29.68 in1005.1 mb 0.00 in0.0 mm 0.00 in0.0 mm 0.00 in0.0 mm
05:40 AM 61.0°F16.1°C 55.4°F13.0°C 84% 2.0 mph SE3.2 kmh SE 3.1 mph5.0 kmh 29.68 in1005.1 mb 0.00 in0.0 mm 0.00 in0.0 mm 0.00 in0.0 mm
05:45 AM 61.0°F16.1°C 55.4°F13.0°C 84% 2.4 mph SE3.9 kmh SE 4.0 mph6.4 kmh 29.68 in1005.1 mb 0.00 in0.0 mm 0.00 in0.0 mm 0.00 in0.0 mm
05:50 AM 61.0°F16.1°C 55.4°F13.0°C 84% 2.2 mph SE3.5 kmh SE 4.0 mph6.4 kmh 29.68 in1005.1 mb 0.00 in0.0 mm 0.00 in0.0 mm 0.00 in0.0 mm
05:55 AM 61.2°F16.2°C 57.2°F14.0°C 85% 1.7 mph SE2.7 kmh SE 4.0 mph6.4 kmh 29.68 in1005.1 mb 0.00 in0.0 mm 0.00 in0.0 mm 0.00 in0.0 mm
06:00 AM 61.2°F16.2°C 57.2°F14.0°C 84% 1.3 mph SE2.1 kmh SE 2.9 mph4.7 kmh 29.68 in1005.1 mb 0.00 in0.0 mm 0.00 in0.0 mm 0.00 in0.0 mm
06:05 AM 61.3°F16.3°C 57.2°F14.0°C 84% 1.0 mph SE1.6 kmh SE 2.5 mph4.0 kmh 29.65 in1004.1 mb 0.00 in0.0 mm 0.00 in0.0 mm 0.00 in0.0 mm
06:10 AM 61.3°F16.3°C 57.2°F14.0°C 84% 1.1 mph SSE1.8 kmh SSE 2.5 mph4.0 kmh 29.65 in1004.1 mb 0.00 in0.0 mm 0.00 in0.0 mm 0.00 in0.0 mm
06:15 AM 61.3°F16.3°C 57.2°F14.0°C 84% 1.5 mph SSE2.4 kmh SSE 2.7 mph4.3 kmh 29.65 in1004.1 mb 0.00 in0.0 mm 0.00 in0.0 mm 0.00 in0.0 mm
06:20 AM 61.7°F16.5°C 57.2°F14.0°C 84% 2.3 mph SSE3.7 kmh SSE 6.0 mph9.7 kmh 29.65 in1004.1 mb 0.00 in0.0 mm 0.00 in0.0 mm 0.00 in0.0 mm
06:25 AM 61.7°F16.5°C 57.2°F14.0°C 83% 3.1 mph SSE5.0 kmh SSE 6.0 mph9.7 kmh 29.65 in1004.1 mb 0.00 in0.0 mm 0.00 in0.0 mm 0.00 in0.0 mm
06:30 AM 61.7°F16.5°C 57.2°F14.0°C 83% 3.1 mph S5.0 kmh S 6.0 mph9.7 kmh 29.65 in1004.1 mb 0.00 in0.0 mm 0.00 in0.0 mm 0.00 in0.0 mm
06:35 AM 61.7°F16.5°C 57.2°F14.0°C 83% 3.1 mph S5.0 kmh S 6.3 mph10.1 kmh 29.65 in1004.1 mb 0.00 in0.0 mm 0.00 in0.0 mm 0.00 in0.0 mm
06:40 AM 61.9°F16.6°C 57.2°F14.0°C 83% 3.4 mph SSE5.5 kmh SSE 6.3 mph10.1 kmh 29.65 in1004.1 mb 0.00 in0.0 mm 0.00 in0.0 mm 0.00 in0.0 mm
06:45 AM 62.1°F16.7°C 57.2°F14.0°C 82% 3.7 mph S6.0 kmh S 5.8 mph9.3 kmh 29.65 in1004.1 mb 0.00 in0.0 mm 0.00 in0.0 mm 0.00 in0.0 mm
06:50 AM 62.1°F16.7°C 57.2°F14.0°C 82% 4.2 mph SSW6.8 kmh SSW 6.5 mph10.5 kmh 29.65 in1004.1 mb 0.00 in0.0 mm 0.00 in0.0 mm 0.00 in0.0 mm
06:55 AM 62.1°F16.7°C 57.2°F14.0°C 82% 4.1 mph SSW6.6 kmh SSW 6.5 mph10.5 kmh 29.65 in1004.1 mb 0.00 in0.0 mm 0.00 in0.0 mm 0.00 in0.0 mm
07:00 AM 62.1°F16.7°C 57.2°F14.0°C 82% 3.7 mph S6.0 kmh S 5.6 mph9.0 kmh 29.65 in1004.1 mb 0.00 in0.0 mm 0.00 in0.0 mm 0.00 in0.0 mm
07:05 AM 62.2°F16.8°C 57.2°F14.0°C 82% 3.3 mph S5.3 kmh S 5.6 mph9.0 kmh 29.65 in1004.1 mb 0.00 in0.0 mm 0.00 in0.0 mm 0.00 in0.0 mm
07:10 AM 62.4°F16.9°C 57.2°F14.0°C 83% 2.9 mph S4.7 kmh S 4.3 mph6.9 kmh 29.65 in1004.1 mb 0.00 in0.0 mm 0.00 in0.0 mm 0.00 in0.0 mm
07:15 AM 62.2°F16.8°C 57.2°F14.0°C 83% 3.7 mph S6.0 kmh S 7.2 mph11.6 kmh 29.65 in1004.1 mb 0.00 in0.0 mm 0.00 in0.0 mm 0.00 in0.0 mm
07:20 AM 62.1°F16.7°C 57.2°F14.0°C 82% 4.5 mph S7.2 kmh S 7.2 mph11.6 kmh 29.65 in1004.1 mb 0.00 in0.0 mm 0.00 in0.0 mm 0.00 in0.0 mm
07:25 AM 62.1°F16.7°C 57.2°F14.0°C 82% 4.1 mph S6.6 kmh S 6.0 mph9.7 kmh 29.65 in1004.1 mb 0.00 in0.0 mm 0.00 in0.0 mm 0.00 in0.0 mm
07:30 AM 62.1°F16.7°C 57.2°F14.0°C 82% 3.9 mph S6.3 kmh S 5.6 mph9.0 kmh 29.65 in1004.1 mb 0.00 in0.0 mm 0.00 in0.0 mm 0.00 in0.0 mm
07:35 AM 62.1°F16.7°C 57.2°F14.0°C 83% 3.9 mph S6.3 kmh S 5.6 mph9.0 kmh 29.65 in1004.1 mb 0.00 in0.0 mm 0.00 in0.0 mm 0.00 in0.0 mm
07:40 AM 62.1°F16.7°C 57.2°F14.0°C 83% 3.7 mph S6.0 kmh S 5.6 mph9.0 kmh 29.65 in1004.1 mb 0.00 in0.0 mm 0.00 in0.0 mm 0.00 in0.0 mm
07:45 AM 62.2°F16.8°C 57.2°F14.0°C 83% 3.6 mph S5.8 kmh S 5.8 mph9.3 kmh 29.65 in1004.1 mb 0.00 in0.0 mm 0.00 in0.0 mm 0.00 in0.0 mm
07:50 AM 62.4°F16.9°C 57.2°F14.0°C 83% 4.2 mph S6.8 kmh S 6.3 mph10.1 kmh 29.65 in1004.1 mb 0.00 in0.0 mm 0.00 in0.0 mm 0.00 in0.0 mm
07:55 AM 62.4°F16.9°C 57.2°F14.0°C 83% 4.5 mph S7.2 kmh S 6.3 mph10.1 kmh 29.65 in1004.1 mb 0.00 in0.0 mm 0.00 in0.0 mm 0.00 in0.0 mm
08:00 AM 62.4°F16.9°C 57.2°F14.0°C 83% 4.6 mph S7.4 kmh S 6.5 mph10.5 kmh 29.65 in1004.1 mb 0.00 in0.0 mm 0.00 in0.0 mm 0.00 in0.0 mm
08:05 AM 62.6°F17.0°C 57.2°F14.0°C 82% 4.4 mph S7.1 kmh S 6.5 mph10.5 kmh 29.65 in1004.1 mb 0.00 in0.0 mm 0.00 in0.0 mm 0.00 in0.0 mm
08:10 AM 62.8°F17.1°C 57.2°F14.0°C 82% 4.0 mph S6.4 kmh S 5.8 mph9.3 kmh 29.65 in1004.1 mb 0.00 in0.0 mm 0.00 in0.0 mm 0.00 in0.0 mm
08:15 AM 62.8°F17.1°C 57.2°F14.0°C 82% 3.6 mph S5.8 kmh S 6.0 mph9.7 kmh 29.65 in1004.1 mb 0.00 in0.0 mm 0.00 in0.0 mm 0.00 in0.0 mm
08:20 AM 62.8°F17.1°C 57.2°F14.0°C 83% 3.5 mph S5.6 kmh S 6.0 mph9.7 kmh 29.65 in1004.1 mb 0.00 in0.0 mm 0.00 in0.0 mm 0.00 in0.0 mm
08:25 AM 62.8°F17.1°C 57.2°F14.0°C 82% 3.8 mph SSW6.1 kmh SSW 5.4 mph8.7 kmh 29.65 in1004.1 mb 0.00 in0.0 mm 0.00 in0.0 mm 0.00 in0.0 mm
08:30 AM 63.1°F17.3°C 57.2°F14.0°C 83% 3.4 mph SSW5.5 kmh SSW 5.4 mph8.7 kmh 29.65 in1004.1 mb 0.00 in0.0 mm 0.00 in0.0 mm 0.00 in0.0 mm
08:35 AM 63.1°F17.3°C 57.2°F14.0°C 83% 2.9 mph SSW4.7 kmh SSW 4.7 mph7.6 kmh 29.65 in1004.1 mb 0.00 in0.0 mm 0.00 in0.0 mm 0.00 in0.0 mm
08:40 AM 63.1°F17.3°C 59.0°F15.0°C 84% 3.0 mph SSW4.8 kmh SSW 4.3 mph6.9 kmh 29.65 in1004.1 mb 0.00 in0.0 mm 0.00 in0.0 mm 0.00 in0.0 mm
08:45 AM 63.0°F17.2°C 57.2°F14.0°C 83% 3.3 mph SSW5.3 kmh SSW 5.6 mph9.0 kmh 29.65 in1004.1 mb 0.00 in0.0 mm 0.00 in0.0 mm 0.00 in0.0 mm
08:50 AM 62.8°F17.1°C 57.2°F14.0°C 83% 3.4 mph SSW5.5 kmh SSW 5.6 mph9.0 kmh 29.65 in1004.1 mb 0.06 in1.5 mm 0.72 in18.3 mm 0.06 in1.5 mm
08:55 AM 62.8°F17.1°C 57.2°F14.0°C 83% 3.8 mph SSW6.1 kmh SSW 6.3 mph10.1 kmh 29.65 in1004.1 mb 0.06 in1.5 mm 0.00 in0.0 mm 0.06 in1.5 mm
09:00 AM 62.8°F17.1°C 57.2°F14.0°C 83% 3.4 mph SSW5.5 kmh SSW 6.3 mph10.1 kmh 29.65 in1004.1 mb 0.06 in1.5 mm 0.00 in0.0 mm 0.06 in1.5 mm
09:05 AM 63.0°F17.2°C 59.0°F15.0°C 84% 2.6 mph SSW4.2 kmh SSW 4.0 mph6.4 kmh 29.65 in1004.1 mb 0.06 in1.5 mm 0.00 in0.0 mm 0.06 in1.5 mm
09:10 AM 63.3°F17.4°C 59.0°F15.0°C 84% 3.0 mph S4.8 kmh S 4.3 mph6.9 kmh 29.65 in1004.1 mb 0.06 in1.5 mm 0.00 in0.0 mm 0.06 in1.5 mm
09:15 AM 63.7°F17.6°C 59.0°F15.0°C 83% 3.3 mph S5.3 kmh S 5.4 mph8.7 kmh 29.65 in1004.1 mb 0.06 in1.5 mm 0.00 in0.0 mm 0.06 in1.5 mm
09:20 AM 64.2°F17.9°C 59.0°F15.0°C 84% 3.4 mph S5.5 kmh S 5.8 mph9.3 kmh 29.65 in1004.1 mb 0.06 in1.5 mm 0.00 in0.0 mm 0.06 in1.5 mm
09:25 AM 64.6°F18.1°C 59.0°F15.0°C 83% 3.4 mph S5.5 kmh S 6.3 mph10.1 kmh 29.65 in1004.1 mb 0.06 in1.5 mm 0.00 in0.0 mm 0.06 in1.5 mm
09:30 AM 64.9°F18.3°C 59.0°F15.0°C 82% 3.9 mph S6.3 kmh S 7.4 mph11.9 kmh 29.65 in1004.1 mb 0.06 in1.5 mm 0.00 in0.0 mm 0.06 in1.5 mm
09:35 AM 66.4°F19.1°C 60.8°F16.0°C 80% 4.2 mph SSW6.8 kmh SSW 7.4 mph11.9 kmh 29.65 in1004.1 mb 0.06 in1.5 mm 0.00 in0.0 mm 0.06 in1.5 mm
09:40 AM 66.7°F19.3°C 60.8°F16.0°C 80% 3.9 mph SW6.3 kmh SW 7.2 mph11.6 kmh 29.65 in1004.1 mb 0.06 in1.5 mm 0.00 in0.0 mm 0.06 in1.5 mm
09:45 AM 67.5°F19.7°C 60.8°F16.0°C 79% 3.1 mph SSW5.0 kmh SSW 6.3 mph10.1 kmh 29.65 in1004.1 mb 0.06 in1.5 mm 0.00 in0.0 mm 0.06 in1.5 mm
09:50 AM 66.4°F19.1°C 59.0°F15.0°C 79% 2.6 mph SSW4.2 kmh SSW 5.6 mph9.0 kmh 29.65 in1004.1 mb 0.00 in0.0 mm 0.00 in0.0 mm 0.06 in1.5 mm
09:55 AM 65.8°F18.8°C 59.0°F15.0°C 80% 3.5 mph SW5.6 kmh SW 9.4 mph15.1 kmh 29.65 in1004.1 mb 0.00 in0.0 mm 0.00 in0.0 mm 0.06 in1.5 mm
10:00 AM 65.3°F18.5°C 59.0°F15.0°C 80% 4.6 mph WSW7.4 kmh WSW 9.4 mph15.1 kmh 29.65 in1004.1 mb 0.00 in0.0 mm 0.00 in0.0 mm 0.06 in1.5 mm
10:05 AM 66.2°F19.0°C 59.0°F15.0°C 78% 5.0 mph WSW8.0 kmh WSW 8.5 mph13.7 kmh 29.65 in1004.1 mb 0.00 in0.0 mm 0.00 in0.0 mm 0.06 in1.5 mm
10:10 AM 67.1°F19.5°C 60.8°F16.0°C 77% 5.0 mph WSW8.0 kmh WSW 8.5 mph13.7 kmh 29.65 in1004.1 mb 0.00 in0.0 mm 0.00 in0.0 mm 0.06 in1.5 mm
10:15 AM 67.3°F19.6°C 59.0°F15.0°C 76% 5.1 mph W8.2 kmh W 7.8 mph12.6 kmh 29.65 in1004.1 mb 0.00 in0.0 mm 0.00 in0.0 mm 0.06 in1.5 mm
10:20 AM 68.7°F20.4°C 60.8°F16.0°C 75% 5.7 mph W9.2 kmh W 9.8 mph15.8 kmh 29.65 in1004.1 mb 0.00 in0.0 mm 0.00 in0.0 mm 0.06 in1.5 mm
10:25 AM 70.0°F21.1°C 60.8°F16.0°C 73% 6.1 mph WSW9.8 kmh WSW 9.8 mph15.8 kmh 29.65 in1004.1 mb 0.00 in0.0 mm 0.00 in0.0 mm 0.06 in1.5 mm
10:30 AM 69.1°F20.6°C 60.8°F16.0°C 73% 6.3 mph WSW10.1 kmh WSW 8.9 mph14.3 kmh 29.65 in1004.1 mb 0.00 in0.0 mm 0.00 in0.0 mm 0.06 in1.5 mm
10:35 AM 68.9°F20.5°C 60.8°F16.0°C 72% 5.5 mph W8.9 kmh W 8.9 mph14.3 kmh 29.65 in1004.1 mb 0.00 in0.0 mm 0.00 in0.0 mm 0.06 in1.5 mm
10:40 AM 68.7°F20.4°C 59.0°F15.0°C 71% 6.5 mph W10.5 kmh W 11.0 mph17.7 kmh 29.65 in1004.1 mb 0.00 in0.0 mm 0.00 in0.0 mm 0.06 in1.5 mm
10:45 AM 70.0°F21.1°C 59.0°F15.0°C 70% 7.7 mph W12.4 kmh W 11.0 mph17.7 kmh 29.65 in1004.1 mb 0.00 in0.0 mm 0.00 in0.0 mm 0.06 in1.5 mm
10:50 AM 70.7°F21.5°C 60.8°F16.0°C 69% 6.3 mph WSW10.1 kmh WSW 8.7 mph14.0 kmh 29.65 in1004.1 mb 0.00 in0.0 mm 0.00 in0.0 mm 0.06 in1.5 mm
10:55 AM 72.1°F22.3°C 60.8°F16.0°C 66% 5.5 mph WSW8.9 kmh WSW 8.1 mph13.0 kmh 29.65 in1004.1 mb 0.00 in0.0 mm 0.00 in0.0 mm 0.06 in1.5 mm
11:00 AM 73.2°F22.9°C 60.8°F16.0°C 64% 6.3 mph W10.1 kmh W 10.7 mph17.2 kmh 29.65 in1004.1 mb 0.00 in0.0 mm 0.00 in0.0 mm 0.06 in1.5 mm
11:05 AM 73.8°F23.2°C 60.8°F16.0°C 64% 6.4 mph W10.3 kmh W 10.7 mph17.2 kmh 29.65 in1004.1 mb 0.00 in0.0 mm 0.00 in0.0 mm 0.06 in1.5 mm
11:10 AM 72.5°F22.5°C 59.0°F15.0°C 62% 7.0 mph W11.3 kmh W 12.5 mph20.1 kmh 29.65 in1004.1 mb 0.00 in0.0 mm 0.00 in0.0 mm 0.06 in1.5 mm
11:15 AM 72.1°F22.3°C 59.0°F15.0°C 62% 8.7 mph WSW14.0 kmh WSW 12.5 mph20.1 kmh 29.65 in1004.1 mb 0.00 in0.0 mm 0.00 in0.0 mm 0.06 in1.5 mm
11:20 AM 72.3°F22.4°C 59.0°F15.0°C 62% 6.8 mph WSW10.9 kmh WSW 10.5 mph16.9 kmh 29.65 in1004.1 mb 0.00 in0.0 mm 0.00 in0.0 mm 0.06 in1.5 mm
11:25 AM 72.5°F22.5°C 59.0°F15.0°C 62% 6.4 mph WSW10.3 kmh WSW 9.6 mph15.4 kmh 29.65 in1004.1 mb 0.00 in0.0 mm 0.00 in0.0 mm 0.06 in1.5 mm
11:30 AM 72.1°F22.3°C 57.2°F14.0°C 61% 7.6 mph WSW12.2 kmh WSW 10.3 mph16.6 kmh 29.65 in1004.1 mb 0.00 in0.0 mm 0.00 in0.0 mm 0.06 in1.5 mm
11:35 AM 73.6°F23.1°C 59.0°F15.0°C 59% 7.5 mph WSW12.1 kmh WSW 11.0 mph17.7 kmh 29.65 in1004.1 mb 0.00 in0.0 mm 0.00 in0.0 mm 0.06 in1.5 mm
11:40 AM 74.3°F23.5°C 59.0°F15.0°C 58% 5.2 mph WSW8.4 kmh WSW 11.0 mph17.7 kmh 29.65 in1004.1 mb 0.00 in0.0 mm 0.00 in0.0 mm 0.06 in1.5 mm
11:45 AM 75.7°F24.3°C 59.0°F15.0°C 57% 4.7 mph WSW7.6 kmh WSW 9.4 mph15.1 kmh 29.65 in1004.1 mb 0.00 in0.0 mm 0.00 in0.0 mm 0.06 in1.5 mm
11:50 AM 75.9°F24.4°C 59.0°F15.0°C 57% 5.5 mph WSW8.9 kmh WSW 9.4 mph15.1 kmh 29.65 in1004.1 mb 0.00 in0.0 mm 0.00 in0.0 mm 0.06 in1.5 mm
11:55 AM 75.9°F24.4°C 59.0°F15.0°C 56% 6.1 mph WSW9.8 kmh WSW 9.6 mph15.4 kmh 29.65 in1004.1 mb 0.00 in0.0 mm 0.00 in0.0 mm 0.06 in1.5 mm
12:00 PM 76.5°F24.7°C 59.0°F15.0°C 55% 6.6 mph WSW10.6 kmh WSW 9.6 mph15.4 kmh 29.65 in1004.1 mb 0.00 in0.0 mm 0.00 in0.0 mm 0.06 in1.5 mm
12:05 PM 77.0°F25.0°C 59.0°F15.0°C 54% 7.1 mph WSW11.4 kmh WSW 11.0 mph17.7 kmh 29.65 in1004.1 mb 0.00 in0.0 mm 0.00 in0.0 mm 0.06 in1.5 mm
12:10 PM 76.1°F24.5°C 59.0°F15.0°C 53% 7.7 mph W12.4 kmh W 12.5 mph20.1 kmh 29.65 in1004.1 mb 0.00 in0.0 mm 0.00 in0.0 mm 0.06 in1.5 mm
12:15 PM 77.0°F25.0°C 59.0°F15.0°C 53% 7.2 mph WSW11.6 kmh WSW 12.5 mph20.1 kmh 29.65 in1004.1 mb 0.00 in0.0 mm 0.00 in0.0 mm 0.06 in1.5 mm
12:20 PM 77.5°F25.3°C 59.0°F15.0°C 52% 6.8 mph SW10.9 kmh SW 12.3 mph19.8 kmh 29.65 in1004.1 mb 0.00 in0.0 mm 0.00 in0.0 mm 0.06 in1.5 mm
12:25 PM 77.9°F25.5°C 59.0°F15.0°C 51% 6.8 mph WSW10.9 kmh WSW 12.5 mph20.1 kmh 29.65 in1004.1 mb 0.00 in0.0 mm 0.00 in0.0 mm 0.06 in1.5 mm
12:30 PM 78.3°F25.7°C 59.0°F15.0°C 51% 7.7 mph W12.4 kmh W 12.5 mph20.1 kmh 29.65 in1004.1 mb 0.00 in0.0 mm 0.00 in0.0 mm 0.06 in1.5 mm
12:35 PM 78.3°F25.7°C 59.0°F15.0°C 51% 6.5 mph WSW10.5 kmh WSW 12.5 mph20.1 kmh 29.65 in1004.1 mb 0.00 in0.0 mm 0.00 in0.0 mm 0.06 in1.5 mm
12:40 PM 78.4°F25.8°C 59.0°F15.0°C 51% 5.8 mph WSW9.3 kmh WSW 12.8 mph20.6 kmh 29.65 in1004.1 mb 0.00 in0.0 mm 0.00 in0.0 mm 0.06 in1.5 mm
12:45 PM 75.9°F24.4°C 57.2°F14.0°C 53% 6.7 mph WSW10.8 kmh WSW 12.8 mph20.6 kmh 29.65 in1004.1 mb 0.00 in0.0 mm 0.00 in0.0 mm 0.06 in1.5 mm
12:50 PM 77.4°F25.2°C 59.0°F15.0°C 51% 7.3 mph WSW11.7 kmh WSW 13.0 mph20.9 kmh 29.65 in1004.1 mb 0.00 in0.0 mm 0.00 in0.0 mm 0.06 in1.5 mm
12:55 PM 77.9°F25.5°C 59.0°F15.0°C 50% 7.7 mph W12.4 kmh W 13.0 mph20.9 kmh 29.65 in1004.1 mb 0.00 in0.0 mm 0.00 in0.0 mm 0.06 in1.5 mm
01:00 PM 76.1°F24.5°C 57.2°F14.0°C 51% 7.9 mph W12.7 kmh W 13.0 mph20.9 kmh 29.65 in1004.1 mb 0.00 in0.0 mm 0.00 in0.0 mm 0.06 in1.5 mm
01:05 PM 77.7°F25.4°C 57.2°F14.0°C 50% 7.6 mph W12.2 kmh W 12.3 mph19.8 kmh 29.65 in1004.1 mb 0.00 in0.0 mm 0.00 in0.0 mm 0.06 in1.5 mm
01:10 PM 77.7°F25.4°C 57.2°F14.0°C 50% 6.9 mph WSW11.1 kmh WSW 12.3 mph19.8 kmh 29.65 in1004.1 mb 0.00 in0.0 mm 0.00 in0.0 mm 0.06 in1.5 mm
01:15 PM 77.7°F25.4°C 57.2°F14.0°C 49% 6.7 mph WSW10.8 kmh WSW 10.3 mph16.6 kmh 29.65 in1004.1 mb 0.00 in0.0 mm 0.00 in0.0 mm 0.06 in1.5 mm
01:20 PM 77.5°F25.3°C 57.2°F14.0°C 49% 8.3 mph WSW13.4 kmh WSW 13.2 mph21.2 kmh 29.65 in1004.1 mb 0.00 in0.0 mm 0.00 in0.0 mm 0.06 in1.5 mm
01:25 PM 77.7°F25.4°C 57.2°F14.0°C 48% 9.1 mph WSW14.6 kmh WSW 13.2 mph21.2 kmh 29.65 in1004.1 mb 0.00 in0.0 mm 0.00 in0.0 mm 0.06 in1.5 mm
01:30 PM 77.9°F25.5°C 57.2°F14.0°C 48% 8.1 mph WSW13.0 kmh WSW 12.1 mph19.5 kmh 29.65 in1004.1 mb 0.00 in0.0 mm 0.00 in0.0 mm 0.06 in1.5 mm
01:35 PM 77.5°F25.3°C 57.2°F14.0°C 48% 6.7 mph WSW10.8 kmh WSW 14.5 mph23.3 kmh 29.65 in1004.1 mb 0.00 in0.0 mm 0.00 in0.0 mm 0.06 in1.5 mm
01:40 PM 77.9°F25.5°C 57.2°F14.0°C 48% 7.2 mph W11.6 kmh W 14.5 mph23.3 kmh 29.65 in1004.1 mb 0.00 in0.0 mm 0.00 in0.0 mm 0.06 in1.5 mm
01:45 PM 78.3°F25.7°C 57.2°F14.0°C 48% 8.4 mph W13.5 kmh W 13.6 mph21.9 kmh 29.65 in1004.1 mb 0.00 in0.0 mm 0.00 in0.0 mm 0.06 in1.5 mm
01:50 PM 78.4°F25.8°C 57.2°F14.0°C 47% 8.2 mph W13.2 kmh W 13.6 mph21.9 kmh 29.65 in1004.1 mb 0.00 in0.0 mm 0.00 in0.0 mm 0.06 in1.5 mm
01:55 PM 78.4°F25.8°C 57.2°F14.0°C 47% 8.0 mph WSW12.9 kmh WSW 12.3 mph19.8 kmh 29.65 in1004.1 mb 0.00 in0.0 mm 0.00 in0.0 mm 0.06 in1.5 mm
02:00 PM 78.8°F26.0°C 57.2°F14.0°C 47% 8.1 mph WSW13.0 kmh WSW 12.8 mph20.6 kmh 29.65 in1004.1 mb 0.00 in0.0 mm 0.00 in0.0 mm 0.06 in1.5 mm
02:05 PM 79.0°F26.1°C 57.2°F14.0°C 47% 6.5 mph WSW10.5 kmh WSW 12.8 mph20.6 kmh 29.65 in1004.1 mb 0.00 in0.0 mm 0.00 in0.0 mm 0.06 in1.5 mm
02:10 PM 79.7°F26.5°C 57.2°F14.0°C 46% 5.6 mph SW9.0 kmh SW 10.1 mph16.3 kmh 29.65 in1004.1 mb 0.00 in0.0 mm 0.00 in0.0 mm 0.06 in1.5 mm
02:15 PM 77.4°F25.2°C 55.4°F13.0°C 47% 5.3 mph WSW8.5 kmh WSW 7.8 mph12.6 kmh 29.65 in1004.1 mb 0.00 in0.0 mm 0.00 in0.0 mm 0.06 in1.5 mm
02:20 PM 76.1°F24.5°C 55.4°F13.0°C 47% 5.7 mph WSW9.2 kmh WSW 7.8 mph12.6 kmh 29.65 in1004.1 mb 0.00 in0.0 mm 0.00 in0.0 mm 0.06 in1.5 mm
02:25 PM 74.8°F23.8°C 53.6°F12.0°C 47% 8.2 mph WSW13.2 kmh WSW 11.9 mph19.2 kmh 29.65 in1004.1 mb 0.00 in0.0 mm 0.00 in0.0 mm 0.06 in1.5 mm
02:30 PM 75.7°F24.3°C 55.4°F13.0°C 47% 8.1 mph WSW13.0 kmh WSW 11.9 mph19.2 kmh 29.65 in1004.1 mb 0.00 in0.0 mm 0.00 in0.0 mm 0.06 in1.5 mm
02:35 PM 76.5°F24.7°C 55.4°F13.0°C 47% 6.5 mph WSW10.5 kmh WSW 9.8 mph15.8 kmh 29.65 in1004.1 mb 0.00 in0.0 mm 0.00 in0.0 mm 0.06 in1.5 mm
02:40 PM 75.7°F24.3°C 55.4°F13.0°C 47% 7.1 mph WSW11.4 kmh WSW 10.3 mph16.6 kmh 29.65 in1004.1 mb 0.00 in0.0 mm 0.00 in0.0 mm 0.06 in1.5 mm
02:45 PM 75.2°F24.0°C 55.4°F13.0°C 48% 6.6 mph WSW10.6 kmh WSW 10.3 mph16.6 kmh 29.65 in1004.1 mb 0.00 in0.0 mm 0.00 in0.0 mm 0.06 in1.5 mm
02:50 PM 77.0°F25.0°C 55.4°F13.0°C 45% 7.7 mph WSW12.4 kmh WSW 12.1 mph19.5 kmh 29.65 in1004.1 mb 0.00 in0.0 mm 0.00 in0.0 mm 0.06 in1.5 mm
02:55 PM 76.5°F24.7°C 55.4°F13.0°C 46% 9.0 mph WSW14.5 kmh WSW 12.8 mph20.6 kmh 29.65 in1004.1 mb 0.00 in0.0 mm 0.00 in0.0 mm 0.06 in1.5 mm
03:00 PM 75.0°F23.9°C 53.6°F12.0°C 46% 9.8 mph WSW15.8 kmh WSW 16.8 mph27.0 kmh 29.65 in1004.1 mb 0.00 in0.0 mm 0.00 in0.0 mm 0.06 in1.5 mm
03:05 PM 74.5°F23.6°C 53.6°F12.0°C 46% 10.1 mph WSW16.3 kmh WSW 16.8 mph27.0 kmh 29.65 in1004.1 mb 0.00 in0.0 mm 0.00 in0.0 mm 0.06 in1.5 mm
03:10 PM 75.9°F24.4°C 53.6°F12.0°C 46% 10.2 mph WSW16.4 kmh WSW 14.8 mph23.8 kmh 29.65 in1004.1 mb 0.00 in0.0 mm 0.00 in0.0 mm 0.06 in1.5 mm
03:15 PM 76.3°F24.6°C 55.4°F13.0°C 46% 11.0 mph WSW17.7 kmh WSW 13.9 mph22.4 kmh 29.65 in1004.1 mb 0.00 in0.0 mm 0.00 in0.0 mm 0.06 in1.5 mm
03:20 PM 76.8°F24.9°C 55.4°F13.0°C 46% 8.7 mph WSW14.0 kmh WSW 13.9 mph22.4 kmh 29.65 in1004.1 mb 0.00 in0.0 mm 0.00 in0.0 mm 0.06 in1.5 mm
03:25 PM 76.8°F24.9°C 55.4°F13.0°C 45% 6.3 mph SW10.1 kmh SW 8.1 mph13.0 kmh 29.65 in1004.1 mb 0.00 in0.0 mm 0.00 in0.0 mm 0.06 in1.5 mm
03:30 PM 77.0°F25.0°C 53.6°F12.0°C 44% 7.2 mph WSW11.6 kmh WSW 13.2 mph21.2 kmh 29.65 in1004.1 mb 0.00 in0.0 mm 0.00 in0.0 mm 0.06 in1.5 mm
03:35 PM 76.6°F24.8°C 53.6°F12.0°C 45% 8.5 mph W13.7 kmh W 14.5 mph23.3 kmh 29.65 in1004.1 mb 0.00 in0.0 mm 0.00 in0.0 mm 0.06 in1.5 mm
03:40 PM 76.5°F24.7°C 53.6°F12.0°C 44% 7.9 mph W12.7 kmh W 14.5 mph23.3 kmh 29.65 in1004.1 mb 0.00 in0.0 mm 0.00 in0.0 mm 0.06 in1.5 mm
03:45 PM 74.7°F23.7°C 51.8°F11.0°C 45% 7.4 mph W11.9 kmh W 13.4 mph21.6 kmh 29.65 in1004.1 mb 0.00 in0.0 mm 0.00 in0.0 mm 0.06 in1.5 mm
03:50 PM 74.8°F23.8°C 51.8°F11.0°C 45% 7.8 mph W12.6 kmh W 13.4 mph21.6 kmh 29.65 in1004.1 mb 0.00 in0.0 mm 0.00 in0.0 mm 0.06 in1.5 mm
03:55 PM 74.7°F23.7°C 51.8°F11.0°C 45% 7.8 mph W12.6 kmh W 14.3 mph23.0 kmh 29.65 in1004.1 mb 0.00 in0.0 mm 0.00 in0.0 mm 0.06 in1.5 mm
04:00 PM 74.8°F23.8°C 51.8°F11.0°C 44% 9.2 mph WSW14.8 kmh WSW 14.3 mph23.0 kmh 29.65 in1004.1 mb 0.00 in0.0 mm 0.00 in0.0 mm 0.06 in1.5 mm
04:05 PM 74.7°F23.7°C 51.8°F11.0°C 44% 8.2 mph W13.2 kmh W 10.7 mph17.2 kmh 29.65 in1004.1 mb 0.00 in0.0 mm 0.00 in0.0 mm 0.06 in1.5 mm
04:10 PM 74.3°F23.5°C 51.8°F11.0°C 45% 6.9 mph WSW11.1 kmh WSW 10.7 mph17.2 kmh 29.65 in1004.1 mb 0.00 in0.0 mm 0.00 in0.0 mm 0.06 in1.5 mm
04:15 PM 73.6°F23.1°C 51.8°F11.0°C 45% 7.4 mph WSW11.9 kmh WSW 12.3 mph19.8 kmh 29.65 in1004.1 mb 0.00 in0.0 mm 0.00 in0.0 mm 0.06 in1.5 mm
04:20 PM 73.0°F22.8°C 51.8°F11.0°C 46% 8.7 mph WSW14.0 kmh WSW 12.3 mph19.8 kmh 29.65 in1004.1 mb 0.00 in0.0 mm 0.00 in0.0 mm 0.06 in1.5 mm
04:25 PM 72.9°F22.7°C 50.0°F10.0°C 45% 8.7 mph WSW14.0 kmh WSW 11.4 mph18.3 kmh 29.65 in1004.1 mb 0.00 in0.0 mm 0.00 in0.0 mm 0.06 in1.5 mm
04:30 PM 72.7°F22.6°C 50.0°F10.0°C 45% 8.6 mph WSW13.8 kmh WSW 16.6 mph26.7 kmh 29.65 in1004.1 mb 0.00 in0.0 mm 0.00 in0.0 mm 0.06 in1.5 mm
04:35 PM 72.5°F22.5°C 50.0°F10.0°C 45% 8.8 mph WSW14.2 kmh WSW 16.6 mph26.7 kmh 29.65 in1004.1 mb 0.00 in0.0 mm 0.00 in0.0 mm 0.06 in1.5 mm
04:40 PM 72.3°F22.4°C 50.0°F10.0°C 45% 9.6 mph WSW15.4 kmh WSW 16.6 mph26.7 kmh 29.65 in1004.1 mb 0.00 in0.0 mm 0.00 in0.0 mm 0.06 in1.5 mm
04:45 PM 72.0°F22.2°C 50.0°F10.0°C 46% 7.2 mph WSW11.6 kmh WSW 12.8 mph20.6 kmh 29.65 in1004.1 mb 0.00 in0.0 mm 0.00 in0.0 mm 0.06 in1.5 mm
04:50 PM 72.0°F22.2°C 50.0°F10.0°C 46% 6.5 mph WSW10.5 kmh WSW 12.8 mph20.6 kmh 29.65 in1004.1 mb 0.00 in0.0 mm 0.00 in0.0 mm 0.06 in1.5 mm
04:55 PM 71.8°F22.1°C 50.0°F10.0°C 46% 6.9 mph WSW11.1 kmh WSW 12.8 mph20.6 kmh 29.65 in1004.1 mb 0.00 in0.0 mm 0.00 in0.0 mm 0.06 in1.5 mm
05:00 PM 72.0°F22.2°C 50.0°F10.0°C 46% 6.2 mph WSW10.0 kmh WSW 10.1 mph16.3 kmh 29.65 in1004.1 mb 0.00 in0.0 mm 0.00 in0.0 mm 0.06 in1.5 mm
05:05 PM 71.6°F22.0°C 50.0°F10.0°C 46% 7.3 mph WSW11.7 kmh WSW 12.8 mph20.6 kmh 29.65 in1004.1 mb 0.00 in0.0 mm 0.00 in0.0 mm 0.06 in1.5 mm
05:10 PM 71.2°F21.8°C 50.0°F10.0°C 46% 8.8 mph WSW14.2 kmh WSW 13.0 mph20.9 kmh 29.65 in1004.1 mb 0.00 in0.0 mm 0.00 in0.0 mm 0.06 in1.5 mm
05:15 PM 71.1°F21.7°C 50.0°F10.0°C 46% 8.4 mph WSW13.5 kmh WSW 13.0 mph20.9 kmh 29.65 in1004.1 mb 0.00 in0.0 mm 0.00 in0.0 mm 0.06 in1.5 mm
05:20 PM 71.1°F21.7°C 50.0°F10.0°C 47% 5.7 mph WSW9.2 kmh WSW 10.3 mph16.6 kmh 29.65 in1004.1 mb 0.00 in0.0 mm 0.00 in0.0 mm 0.06 in1.5 mm
05:25 PM 70.9°F21.6°C 50.0°F10.0°C 47% 5.7 mph WSW9.2 kmh WSW 12.3 mph19.8 kmh 29.65 in1004.1 mb 0.00 in0.0 mm 0.00 in0.0 mm 0.06 in1.5 mm
05:30 PM 70.7°F21.5°C 50.0°F10.0°C 47% 5.8 mph WSW9.3 kmh WSW 12.3 mph19.8 kmh 29.65 in1004.1 mb 0.00 in0.0 mm 0.00 in0.0 mm 0.06 in1.5 mm
05:35 PM 70.7°F21.5°C 50.0°F10.0°C 47% 4.0 mph WSW6.4 kmh WSW 7.6 mph12.2 kmh 29.65 in1004.1 mb 0.00 in0.0 mm 0.00 in0.0 mm 0.06 in1.5 mm
05:40 PM 70.5°F21.4°C 50.0°F10.0°C 47% 4.0 mph WSW6.4 kmh WSW 6.3 mph10.1 kmh 29.65 in1004.1 mb 0.00 in0.0 mm 0.00 in0.0 mm 0.06 in1.5 mm
05:45 PM 70.3°F21.3°C 50.0°F10.0°C 48% 4.6 mph WSW7.4 kmh WSW 7.8 mph12.6 kmh 29.65 in1004.1 mb 0.00 in0.0 mm 0.00 in0.0 mm 0.06 in1.5 mm
05:50 PM 70.2°F21.2°C 50.0°F10.0°C 48% 4.7 mph W7.6 kmh W 8.5 mph13.7 kmh 29.65 in1004.1 mb 0.00 in0.0 mm 0.00 in0.0 mm 0.06 in1.5 mm
05:55 PM 70.3°F21.3°C 50.0°F10.0°C 48% 4.4 mph WSW7.1 kmh WSW 8.5 mph13.7 kmh 29.65 in1004.1 mb 0.00 in0.0 mm 0.00 in0.0 mm 0.06 in1.5 mm
06:00 PM 70.3°F21.3°C 50.0°F10.0°C 48% 4.8 mph SW7.7 kmh SW 7.6 mph12.2 kmh 29.65 in1004.1 mb 0.00 in0.0 mm 0.00 in0.0 mm 0.06 in1.5 mm
06:05 PM 70.2°F21.2°C 50.0°F10.0°C 48% 5.6 mph WSW9.0 kmh WSW 8.5 mph13.7 kmh 29.65 in1004.1 mb 0.00 in0.0 mm 0.00 in0.0 mm 0.06 in1.5 mm
06:10 PM 70.2°F21.2°C 50.0°F10.0°C 48% 6.1 mph W9.8 kmh W 8.5 mph13.7 kmh 29.65 in1004.1 mb 0.00 in0.0 mm 0.00 in0.0 mm 0.06 in1.5 mm
06:15 PM 70.0°F21.1°C 50.0°F10.0°C 48% 6.2 mph WSW10.0 kmh WSW 9.6 mph15.4 kmh 29.65 in1004.1 mb 0.00 in0.0 mm 0.00 in0.0 mm 0.06 in1.5 mm
06:20 PM 69.6°F20.9°C 50.0°F10.0°C 49% 6.3 mph WSW10.1 kmh WSW 9.6 mph15.4 kmh 29.65 in1004.1 mb 0.00 in0.0 mm 0.00 in0.0 mm 0.06 in1.5 mm
06:25 PM 69.3°F20.7°C 50.0°F10.0°C 49% 6.2 mph WSW10.0 kmh WSW 9.8 mph15.8 kmh 29.65 in1004.1 mb 0.00 in0.0 mm 0.00 in0.0 mm 0.06 in1.5 mm
06:30 PM 69.1°F20.6°C 50.0°F10.0°C 49% 6.4 mph WSW10.3 kmh WSW 9.8 mph15.8 kmh 29.65 in1004.1 mb 0.00 in0.0 mm 0.00 in0.0 mm 0.06 in1.5 mm
06:35 PM 68.9°F20.5°C 50.0°F10.0°C 50% 5.5 mph WSW8.9 kmh WSW 9.8 mph15.8 kmh 29.65 in1004.1 mb 0.00 in0.0 mm 0.00 in0.0 mm 0.06 in1.5 mm
06:40 PM 68.5°F20.3°C 50.0°F10.0°C 50% 4.5 mph WSW7.2 kmh WSW 8.1 mph13.0 kmh 29.65 in1004.1 mb 0.00 in0.0 mm 0.00 in0.0 mm 0.06 in1.5 mm
06:45 PM 68.4°F20.2°C 50.0°F10.0°C 50% 4.3 mph WSW6.9 kmh WSW 9.4 mph15.1 kmh 29.65 in1004.1 mb 0.00 in0.0 mm 0.00 in0.0 mm 0.06 in1.5 mm
06:50 PM 68.0°F20.0°C 48.2°F9.0°C 50% 3.9 mph SW6.3 kmh SW 9.4 mph15.1 kmh 29.65 in1004.1 mb 0.00 in0.0 mm 0.00 in0.0 mm 0.06 in1.5 mm
06:55 PM 68.0°F20.0°C 48.2°F9.0°C 50% 2.8 mph WSW4.5 kmh WSW 5.6 mph9.0 kmh 29.65 in1004.1 mb 0.00 in0.0 mm 0.00 in0.0 mm 0.06 in1.5 mm
07:00 PM 67.8°F19.9°C 50.0°F10.0°C 51% 2.3 mph WSW3.7 kmh WSW 3.8 mph6.1 kmh 29.65 in1004.1 mb 0.00 in0.0 mm 0.00 in0.0 mm 0.06 in1.5 mm
07:05 PM 67.6°F19.8°C 48.2°F9.0°C 51% 2.8 mph WSW4.5 kmh WSW 4.0 mph6.4 kmh 29.65 in1004.1 mb 0.00 in0.0 mm 0.00 in0.0 mm 0.06 in1.5 mm
07:10 PM 67.5°F19.7°C 48.2°F9.0°C 51% 2.9 mph WSW4.7 kmh WSW 4.3 mph6.9 kmh 29.65 in1004.1 mb 0.00 in0.0 mm 0.00 in0.0 mm 0.06 in1.5 mm
07:15 PM 67.3°F19.6°C 48.2°F9.0°C 51% 3.5 mph WSW5.6 kmh WSW 6.0 mph9.7 kmh 29.65 in1004.1 mb 0.00 in0.0 mm 0.00 in0.0 mm 0.06 in1.5 mm
07:20 PM 67.1°F19.5°C 48.2°F9.0°C 51% 3.6 mph WSW5.8 kmh WSW 6.0 mph9.7 kmh 29.65 in1004.1 mb 0.00 in0.0 mm 0.00 in0.0 mm 0.06 in1.5 mm
07:25 PM 66.9°F19.4°C 48.2°F9.0°C 52% 3.1 mph WSW5.0 kmh WSW 6.5 mph10.5 kmh 29.65 in1004.1 mb 0.00 in0.0 mm 0.00 in0.0 mm 0.06 in1.5 mm
07:30 PM 66.7°F19.3°C 48.2°F9.0°C 52% 2.9 mph WSW4.7 kmh WSW 6.5 mph10.5 kmh 29.65 in1004.1 mb 0.00 in0.0 mm 0.00 in0.0 mm 0.06 in1.5 mm
07:35 PM 66.7°F19.3°C 50.0°F10.0°C 53% 2.2 mph WSW3.5 kmh WSW 4.0 mph6.4 kmh 29.65 in1004.1 mb 0.00 in0.0 mm 0.00 in0.0 mm 0.06 in1.5 mm
07:40 PM 66.7°F19.3°C 48.2°F9.0°C 52% 1.9 mph WSW3.1 kmh WSW 3.4 mph5.5 kmh 29.65 in1004.1 mb 0.00 in0.0 mm 0.00 in0.0 mm 0.06 in1.5 mm
07:45 PM 66.6°F19.2°C 50.0°F10.0°C 53% 1.7 mph WSW2.7 kmh WSW 2.7 mph4.3 kmh 29.65 in1004.1 mb 0.00 in0.0 mm 0.00 in0.0 mm 0.06 in1.5 mm
07:50 PM 66.4°F19.1°C 48.2°F9.0°C 53% 1.3 mph WSW2.1 kmh WSW 3.8 mph6.1 kmh 29.65 in1004.1 mb 0.00 in0.0 mm 0.00 in0.0 mm 0.06 in1.5 mm
07:55 PM 66.2°F19.0°C 50.0°F10.0°C 54% 1.0 mph SW1.6 kmh SW 3.8 mph6.1 kmh 29.68 in1005.1 mb 0.00 in0.0 mm 0.00 in0.0 mm 0.06 in1.5 mm
08:00 PM 66.2°F19.0°C 50.0°F10.0°C 54% 1.4 mph WSW2.3 kmh WSW 3.8 mph6.1 kmh 29.68 in1005.1 mb 0.00 in0.0 mm 0.00 in0.0 mm 0.06 in1.5 mm
08:05 PM 66.0°F18.9°C 50.0°F10.0°C 55% 2.0 mph WSW3.2 kmh WSW 3.8 mph6.1 kmh 29.68 in1005.1 mb 0.00 in0.0 mm 0.00 in0.0 mm 0.06 in1.5 mm
08:10 PM 65.8°F18.8°C 48.2°F9.0°C 55% 1.6 mph WSW2.6 kmh WSW 2.9 mph4.7 kmh 29.68 in1005.1 mb 0.00 in0.0 mm 0.00 in0.0 mm 0.06 in1.5 mm
08:15 PM 65.7°F18.7°C 50.0°F10.0°C 56% 1.5 mph WSW2.4 kmh WSW 3.4 mph5.5 kmh 29.68 in1005.1 mb 0.00 in0.0 mm 0.00 in0.0 mm 0.06 in1.5 mm
08:20 PM 65.5°F18.6°C 50.0°F10.0°C 56% 1.7 mph WSW2.7 kmh WSW 3.4 mph5.5 kmh 29.68 in1005.1 mb 0.00 in0.0 mm 0.00 in0.0 mm 0.06 in1.5 mm
08:25 PM 65.3°F18.5°C 50.0°F10.0°C 57% 1.4 mph SW2.3 kmh SW 2.5 mph4.0 kmh 29.68 in1005.1 mb 0.00 in0.0 mm 0.00 in0.0 mm 0.06 in1.5 mm
08:30 PM 65.1°F18.4°C 50.0°F10.0°C 57% 1.2 mph SSW1.9 kmh SSW 2.9 mph4.7 kmh 29.68 in1005.1 mb 0.00 in0.0 mm 0.00 in0.0 mm 0.06 in1.5 mm
08:35 PM 65.1°F18.4°C 50.0°F10.0°C 57% 1.1 mph SSW1.8 kmh SSW 2.9 mph4.7 kmh 29.68 in1005.1 mb 0.00 in0.0 mm 0.00 in0.0 mm 0.06 in1.5 mm
08:40 PM 64.9°F18.3°C 50.0°F10.0°C 58% 0.6 mph S1.0 kmh S 2.7 mph4.3 kmh 29.68 in1005.1 mb 0.00 in0.0 mm 0.00 in0.0 mm 0.06 in1.5 mm
08:45 PM 64.8°F18.2°C 50.0°F10.0°C 58% 0.4 mph SW0.6 kmh SW 1.1 mph1.8 kmh 29.68 in1005.1 mb 0.00 in0.0 mm 0.00 in0.0 mm 0.06 in1.5 mm
08:50 PM 64.8°F18.2°C 50.0°F10.0°C 58% 0.7 mph SSW1.1 kmh SSW 2.2 mph3.5 kmh 29.68 in1005.1 mb 0.00 in0.0 mm 0.00 in0.0 mm 0.06 in1.5 mm
08:55 PM 64.4°F18.0°C 50.0°F10.0°C 59% 1.2 mph SSW1.9 kmh SSW 2.5 mph4.0 kmh 29.68 in1005.1 mb 0.00 in0.0 mm 0.00 in0.0 mm 0.06 in1.5 mm
09:00 PM 64.0°F17.8°C 50.0°F10.0°C 60% 1.1 mph SSW1.8 kmh SSW 2.5 mph4.0 kmh 29.68 in1005.1 mb 0.00 in0.0 mm 0.00 in0.0 mm 0.06 in1.5 mm
09:05 PM 63.7°F17.6°C 50.0°F10.0°C 60% 1.0 mph S1.6 kmh S 2.0 mph3.2 kmh 29.68 in1005.1 mb 0.00 in0.0 mm 0.00 in0.0 mm 0.06 in1.5 mm
09:10 PM 63.5°F17.5°C 50.0°F10.0°C 61% 0.7 mph SSW1.1 kmh SSW 2.0 mph3.2 kmh 29.68 in1005.1 mb 0.00 in0.0 mm 0.00 in0.0 mm 0.06 in1.5 mm
09:15 PM 63.1°F17.3°C 50.0°F10.0°C 61% 0.3 mph S0.5 kmh S 1.1 mph1.8 kmh 29.68 in1005.1 mb 0.00 in0.0 mm 0.00 in0.0 mm 0.06 in1.5 mm
09:20 PM 62.8°F17.1°C 48.2°F9.0°C 61% 0.4 mph SW0.6 kmh SW 2.0 mph3.2 kmh 29.68 in1005.1 mb 0.00 in0.0 mm 0.00 in0.0 mm 0.06 in1.5 mm
09:25 PM 62.8°F17.1°C 48.2°F9.0°C 61% 1.0 mph SSW1.6 kmh SSW 2.5 mph4.0 kmh 29.65 in1004.1 mb 0.00 in0.0 mm 0.00 in0.0 mm 0.06 in1.5 mm
09:30 PM 62.2°F16.8°C 50.0°F10.0°C 63% 0.7 mph S1.1 kmh S 2.5 mph4.0 kmh 29.65 in1004.1 mb 0.00 in0.0 mm 0.00 in0.0 mm 0.06 in1.5 mm
09:35 PM 61.9°F16.6°C 50.0°F10.0°C 63% 0.3 mph WNW0.5 kmh WNW 1.6 mph2.6 kmh 29.65 in1004.1 mb 0.00 in0.0 mm 0.00 in0.0 mm 0.06 in1.5 mm
09:40 PM 61.5°F16.4°C 50.0°F10.0°C 64% 0.6 mph N1.0 kmh N 1.6 mph2.6 kmh 29.65 in1004.1 mb 0.00 in0.0 mm 0.00 in0.0 mm 0.06 in1.5 mm
09:45 PM 61.3°F16.3°C 50.0°F10.0°C 65% 0.7 mph NNE1.1 kmh NNE 1.3 mph2.1 kmh 29.65 in1004.1 mb 0.00 in0.0 mm 0.00 in0.0 mm 0.06 in1.5 mm
09:50 PM 61.2°F16.2°C 50.0°F10.0°C 65% 0.4 mph N0.6 kmh N 1.3 mph2.1 kmh 29.65 in1004.1 mb 0.00 in0.0 mm 0.00 in0.0 mm 0.06 in1.5 mm
09:55 PM 61.0°F16.1°C 50.0°F10.0°C 65% 0.3 mph NNW0.5 kmh NNW 1.1 mph1.8 kmh 29.65 in1004.1 mb 0.00 in0.0 mm 0.00 in0.0 mm 0.06 in1.5 mm
10:00 PM 60.8°F16.0°C 50.0°F10.0°C 66% 0.2 mph NNW0.3 kmh NNW 0.9 mph1.4 kmh 29.65 in1004.1 mb 0.00 in0.0 mm 0.00 in0.0 mm 0.06 in1.5 mm
10:05 PM 60.4°F15.8°C 48.2°F9.0°C 66% 0.5 mph NNE0.8 kmh NNE 1.6 mph2.6 kmh 29.65 in1004.1 mb 0.00 in0.0 mm 0.00 in0.0 mm 0.06 in1.5 mm
10:10 PM 60.3°F15.7°C 48.2°F9.0°C 66% 0.9 mph NE1.4 kmh NE 2.0 mph3.2 kmh 29.65 in1004.1 mb 0.00 in0.0 mm 0.00 in0.0 mm 0.06 in1.5 mm
10:15 PM 60.1°F15.6°C 50.0°F10.0°C 67% 0.6 mph ENE1.0 kmh ENE 2.0 mph3.2 kmh 29.65 in1004.1 mb 0.00 in0.0 mm 0.00 in0.0 mm 0.06 in1.5 mm
10:20 PM 59.9°F15.5°C 50.0°F10.0°C 67% 0.3 mph E0.5 kmh E 2.0 mph3.2 kmh 29.65 in1004.1 mb 0.00 in0.0 mm 0.00 in0.0 mm 0.06 in1.5 mm
10:25 PM 59.9°F15.5°C 50.0°F10.0°C 67% Calm Calm -- 29.65 in1004.1 mb 0.00 in0.0 mm 0.00 in0.0 mm 0.06 in1.5 mm
10:30 PM 59.7°F15.4°C 48.2°F9.0°C 67% 0.2 mph SE0.3 kmh SE 1.3 mph2.1 kmh 29.65 in1004.1 mb 0.00 in0.0 mm 0.00 in0.0 mm 0.06 in1.5 mm
10:35 PM 59.5°F15.3°C 48.2°F9.0°C 67% 0.2 mph SE0.3 kmh SE 1.3 mph2.1 kmh 29.65 in1004.1 mb 0.00 in0.0 mm 0.00 in0.0 mm 0.06 in1.5 mm
10:40 PM 59.4°F15.2°C 48.2°F9.0°C 67% Calm Calm -- 29.68 in1005.1 mb 0.00 in0.0 mm 0.00 in0.0 mm 0.06 in1.5 mm
10:45 PM 59.2°F15.1°C 48.2°F9.0°C 68% 0.2 mph SSE0.3 kmh SSE 1.3 mph2.1 kmh 29.68 in1005.1 mb 0.00 in0.0 mm 0.00 in0.0 mm 0.06 in1.5 mm
10:50 PM 59.0°F15.0°C 48.2°F9.0°C 68% 0.4 mph SSE0.6 kmh SSE 1.3 mph2.1 kmh 29.68 in1005.1 mb 0.00 in0.0 mm 0.00 in0.0 mm 0.06 in1.5 mm
10:55 PM 59.0°F15.0°C 48.2°F9.0°C 68% 0.2 mph S0.3 kmh S 0.9 mph1.4 kmh 29.68 in1005.1 mb 0.00 in0.0 mm 0.00 in0.0 mm 0.06 in1.5 mm
11:00 PM 58.8°F14.9°C 48.2°F9.0°C 68% 0.2 mph E0.3 kmh E 1.6 mph2.6 kmh 29.68 in1005.1 mb 0.00 in0.0 mm 0.00 in0.0 mm 0.06 in1.5 mm
11:05 PM 58.6°F14.8°C 48.2°F9.0°C 68% 0.4 mph ESE0.6 kmh ESE 1.6 mph2.6 kmh 29.68 in1005.1 mb 0.00 in0.0 mm 0.00 in0.0 mm 0.06 in1.5 mm
11:10 PM 58.6°F14.8°C 48.2°F9.0°C 68% 0.2 mph ESE0.3 kmh ESE 1.6 mph2.6 kmh 29.65 in1004.1 mb 0.00 in0.0 mm 0.00 in0.0 mm 0.06 in1.5 mm
11:15 PM 58.8°F14.9°C 48.2°F9.0°C 69% 0.6 mph SSE1.0 kmh SSE 2.7 mph4.3 kmh 29.65 in1004.1 mb 0.00 in0.0 mm 0.00 in0.0 mm 0.06 in1.5 mm
11:20 PM 59.0°F15.0°C 48.2°F9.0°C 69% 1.0 mph SSE1.6 kmh SSE 2.7 mph4.3 kmh 29.65 in1004.1 mb 0.00 in0.0 mm 0.00 in0.0 mm 0.06 in1.5 mm
11:25 PM 59.2°F15.1°C 48.2°F9.0°C 69% 1.1 mph SSE1.8 kmh SSE 2.7 mph4.3 kmh 29.68 in1005.1 mb 0.00 in0.0 mm 0.00 in0.0 mm 0.06 in1.5 mm
11:30 PM 59.4°F15.2°C 50.0°F10.0°C 69% 1.8 mph SSE2.9 kmh SSE 2.7 mph4.3 kmh 29.68 in1005.1 mb 0.00 in0.0 mm 0.00 in0.0 mm 0.06 in1.5 mm
11:35 PM 59.4°F15.2°C 50.0°F10.0°C 69% 1.5 mph SSE2.4 kmh SSE 2.7 mph4.3 kmh 29.68 in1005.1 mb 0.00 in0.0 mm 0.00 in0.0 mm 0.06 in1.5 mm
11:40 PM 59.2°F15.1°C 48.2°F9.0°C 69% 0.7 mph S1.1 kmh S 1.6 mph2.6 kmh 29.65 in1004.1 mb 0.00 in0.0 mm 0.00 in0.0 mm 0.06 in1.5 mm
11:45 PM 59.0°F15.0°C 48.2°F9.0°C 69% 0.4 mph S0.6 kmh S 1.3 mph2.1 kmh 29.65 in1004.1 mb 0.00 in0.0 mm 0.00 in0.0 mm 0.06 in1.5 mm
11:50 PM 58.8°F14.9°C 48.2°F9.0°C 69% 0.5 mph S0.8 kmh S 1.6 mph2.6 kmh 29.65 in1004.1 mb 0.00 in0.0 mm 0.00 in0.0 mm 0.06 in1.5 mm
11:55 PM 58.5°F14.7°C 48.2°F9.0°C 68% 0.6 mph S1.0 kmh S 1.6 mph2.6 kmh 29.65 in1004.1 mb 0.00 in0.0 mm 0.00 in0.0 mm 0.06 in1.5 mm